createdAt,value
2023-07-12T00:00:43.245Z,5.33
2023-07-12T00:03:10.409Z,6.90
2023-07-12T00:05:37.904Z,5.40
2023-07-12T00:08:05.785Z,6.20
2023-07-12T00:10:37.362Z,5.77
2023-07-12T00:13:04.367Z,6.03
2023-07-12T00:15:32.791Z,6.00
2023-07-12T00:17:59.784Z,6.43
2023-07-12T00:20:30.135Z,5.40
2023-07-12T00:22:57.613Z,6.47
2023-07-12T00:25:28.059Z,6.00
2023-07-12T00:27:57.002Z,6.10
2023-07-12T00:30:25.496Z,5.77
2023-07-12T00:32:54.129Z,5.70
2023-07-12T00:35:23.309Z,6.13
2023-07-12T00:37:51.337Z,5.73
2023-07-12T00:40:39.895Z,6.13
2023-07-12T00:43:17.913Z,6.07
2023-07-12T00:45:46.029Z,6.80
2023-07-12T00:48:14.059Z,6.73
2023-07-12T00:50:41.984Z,6.97
2023-07-12T00:53:13.965Z,6.27
2023-07-12T00:55:59.612Z,6.87
2023-07-12T00:58:33.512Z,6.70
2023-07-12T01:01:03.163Z,6.23
2023-07-12T01:03:34.437Z,6.17
2023-07-12T01:06:02.627Z,6.40
2023-07-12T01:08:30.634Z,6.10
2023-07-12T01:10:58.826Z,6.77
2023-07-12T01:13:28.908Z,6.63
2023-07-12T01:15:55.850Z,6.77
2023-07-12T01:18:22.777Z,6.63
2023-07-12T01:21:05.202Z,6.20
2023-07-12T01:23:32.195Z,5.97
2023-07-12T01:26:19.273Z,6.23
2023-07-12T01:28:48.988Z,5.80
2023-07-12T01:31:15.921Z,5.10
2023-07-12T01:33:42.833Z,5.33
2023-07-12T01:36:11.593Z,5.13
2023-07-12T01:38:38.540Z,5.73
2023-07-12T01:41:05.832Z,5.10
2023-07-12T01:43:33.272Z,5.87
2023-07-12T01:46:00.415Z,5.33
2023-07-12T01:48:27.350Z,5.53
2023-07-12T01:50:54.239Z,5.23
2023-07-12T01:53:22.499Z,5.70
2023-07-12T01:55:49.558Z,5.77
2023-07-12T01:58:16.446Z,5.60
2023-07-12T02:00:43.679Z,5.43
2023-07-12T02:03:10.696Z,5.17
2023-07-12T02:05:37.807Z,5.77
2023-07-12T02:08:05.279Z,4.90
2023-07-12T02:10:33.613Z,5.53
2023-07-12T02:13:00.847Z,5.50
2023-07-12T02:15:28.159Z,4.80
2023-07-12T02:17:55.353Z,6.10
2023-07-12T02:20:22.466Z,5.70
2023-07-12T02:22:50.314Z,5.77
2023-07-12T02:25:18.219Z,5.43
2023-07-12T02:27:46.416Z,4.87
2023-07-12T02:30:17.795Z,5.20
2023-07-12T02:32:45.080Z,5.03
2023-07-12T02:35:12.035Z,5.47
2023-07-12T02:37:39.076Z,5.20
2023-07-12T02:40:08.177Z,4.90
2023-07-12T02:42:35.378Z,4.57
2023-07-12T02:45:04.251Z,5.23
2023-07-12T02:47:31.123Z,4.90
2023-07-12T02:49:58.045Z,4.93
2023-07-12T02:52:24.989Z,5.23
2023-07-12T02:54:51.852Z,4.97
2023-07-12T02:57:18.713Z,5.40
2023-07-12T02:59:45.566Z,5.37
2023-07-12T03:02:14.683Z,5.40
2023-07-12T03:04:41.839Z,5.60
2023-07-12T03:07:08.857Z,5.57
2023-07-12T03:09:35.721Z,5.07
2023-07-12T03:12:03.168Z,5.97
2023-07-12T03:14:30.276Z,6.00
2023-07-12T03:16:57.150Z,5.27
2023-07-12T03:19:25.494Z,6.03
2023-07-12T03:21:52.460Z,5.67
2023-07-12T03:24:19.340Z,5.47
2023-07-12T03:26:46.240Z,5.43
2023-07-12T03:29:13.062Z,6.47
2023-07-12T03:31:39.947Z,5.60
2023-07-12T03:34:06.839Z,5.83
2023-07-12T03:36:36.737Z,6.50
2023-07-12T03:39:03.870Z,6.07
2023-07-12T03:41:31.325Z,6.33
2023-07-12T03:43:58.221Z,6.13
2023-07-12T03:46:25.126Z,6.20
2023-07-12T03:48:52.027Z,6.10
2023-07-12T03:51:19.485Z,6.00
2023-07-12T03:53:47.707Z,6.13
2023-07-12T03:56:14.582Z,5.27
2023-07-12T03:58:41.779Z,5.60
2023-07-12T04:01:10.764Z,5.67
2023-07-12T04:03:38.746Z,6.03
2023-07-12T04:06:07.235Z,6.13
2023-07-12T04:08:34.595Z,6.10
2023-07-12T04:11:03.679Z,5.73
2023-07-12T04:13:31.090Z,5.70
2023-07-12T04:16:00.299Z,6.10
2023-07-12T04:18:28.914Z,5.90
2023-07-12T04:20:56.672Z,6.30
2023-07-12T04:23:23.821Z,5.30
2023-07-12T04:25:58.698Z,4.93
2023-07-12T04:28:26.975Z,5.33
2023-07-12T04:30:53.879Z,5.77
2023-07-12T04:33:20.821Z,5.10
2023-07-12T04:35:47.680Z,5.20
2023-07-12T04:38:14.491Z,5.23
2023-07-12T04:40:41.385Z,5.47
2023-07-12T04:43:08.687Z,4.87
2023-07-12T04:45:36.949Z,5.87
2023-07-12T04:48:04.282Z,5.67
2023-07-12T04:50:31.215Z,5.43
2023-07-12T04:52:58.046Z,5.30
2023-07-12T04:55:27.353Z,7.23
2023-07-12T04:57:55.433Z,5.43
2023-07-12T05:00:24.792Z,5.40
2023-07-12T05:02:53.918Z,5.40
2023-07-12T05:05:21.298Z,6.77
2023-07-12T05:07:51.264Z,9.07
2023-07-12T05:10:18.876Z,5.93
2023-07-12T05:12:45.968Z,5.47
2023-07-12T05:15:13.322Z,5.53
2023-07-12T05:17:41.052Z,6.37
2023-07-12T05:20:13.588Z,5.93
2023-07-12T05:22:41.606Z,5.90
2023-07-12T05:25:09.129Z,5.90
2023-07-12T05:27:36.474Z,5.47
2023-07-12T05:30:04.584Z,5.20
2023-07-12T05:32:31.621Z,4.13
2023-07-12T05:34:58.690Z,3.60
2023-07-12T05:37:31.083Z,3.13
2023-07-12T05:39:59.012Z,3.20
2023-07-12T05:42:25.968Z,3.20
2023-07-12T05:44:52.832Z,2.70
2023-07-12T05:47:19.839Z,2.53
2023-07-12T05:49:46.692Z,2.60
2023-07-12T05:52:13.554Z,2.43
2023-07-12T05:54:42.377Z,2.40
2023-07-12T05:57:09.235Z,2.20
2023-07-12T05:59:36.365Z,2.40
2023-07-12T06:02:03.696Z,2.33
2023-07-12T06:04:30.638Z,2.30
2023-07-12T06:06:57.464Z,2.23
2023-07-12T06:09:24.370Z,2.20
2023-07-12T06:11:52.574Z,2.00
2023-07-12T06:14:19.482Z,2.27
2023-07-12T06:16:46.380Z,1.90
2023-07-12T06:19:13.257Z,1.90
2023-07-12T06:21:40.186Z,2.03
2023-07-12T06:24:08.115Z,2.23
2023-07-12T06:26:35.012Z,1.80
2023-07-12T06:29:04.196Z,1.70
2023-07-12T06:31:31.537Z,1.77
2023-07-12T06:34:00.632Z,1.83
2023-07-12T06:36:28.022Z,1.97
2023-07-12T06:38:54.912Z,2.27
2023-07-12T06:41:21.797Z,3.20
2023-07-12T06:43:48.999Z,3.03
2023-07-12T06:46:17.876Z,3.27
2023-07-12T06:48:44.802Z,2.63
2023-07-12T06:51:11.701Z,2.77
2023-07-12T06:53:38.558Z,2.53
2023-07-12T06:56:05.831Z,3.20
2023-07-12T06:58:32.838Z,2.90
2023-07-12T07:00:59.746Z,3.77
2023-07-12T07:03:28.114Z,2.87
2023-07-12T07:05:57.389Z,3.00
2023-07-12T07:08:25.503Z,2.70
2023-07-12T07:10:54.052Z,2.80
2023-07-12T07:13:23.388Z,3.07
2023-07-12T07:15:50.518Z,2.53
2023-07-12T07:18:18.454Z,3.00
2023-07-12T07:20:46.817Z,2.10
2023-07-12T07:23:13.997Z,2.73
2023-07-12T07:25:41.053Z,2.90
2023-07-12T07:28:10.463Z,2.70
2023-07-12T07:30:38.432Z,2.73
2023-07-12T07:33:05.665Z,2.90
2023-07-12T07:35:32.620Z,3.00
2023-07-12T07:38:02.118Z,2.87
2023-07-12T07:40:29.098Z,4.27
2023-07-12T07:42:56.399Z,3.10
2023-07-12T07:45:23.597Z,2.83
2023-07-12T07:47:50.578Z,2.57
2023-07-12T07:50:17.602Z,1.90
2023-07-12T07:52:44.527Z,2.10
2023-07-12T07:55:12.778Z,2.60
2023-07-12T07:57:39.714Z,2.00
2023-07-12T08:00:11.591Z,2.03
2023-07-12T08:02:39.219Z,2.40
2023-07-12T08:05:06.871Z,2.03
2023-07-12T08:07:39.282Z,2.47
2023-07-12T08:10:07.681Z,1.70
2023-07-12T08:12:35.943Z,1.40
2023-07-12T08:15:03.155Z,1.70
2023-07-12T08:17:31.375Z,1.53
2023-07-12T08:19:58.440Z,1.50
2023-07-12T08:22:26.333Z,1.30
2023-07-12T08:24:53.885Z,1.20
2023-07-12T08:27:20.693Z,1.73
2023-07-12T08:29:48.996Z,1.30
2023-07-12T08:32:16.380Z,1.40
2023-07-12T08:34:43.274Z,1.43
2023-07-12T08:37:10.182Z,1.13
2023-07-12T08:39:37.133Z,1.10
2023-07-12T08:42:12.188Z,1.10
2023-07-12T08:44:39.281Z,1.27
2023-07-12T08:47:14.808Z,1.30
2023-07-12T08:49:41.943Z,1.20
2023-07-12T08:52:16.891Z,1.10
2023-07-12T08:54:45.196Z,1.30
2023-07-12T08:57:17.653Z,1.13
2023-07-12T08:59:48.505Z,1.43
2023-07-12T09:02:22.056Z,1.00
2023-07-12T09:04:49.461Z,1.23
2023-07-12T09:07:24.645Z,1.00
2023-07-12T09:09:51.527Z,1.10
2023-07-12T09:12:28.241Z,1.03
2023-07-12T09:14:58.934Z,1.20
2023-07-12T09:17:29.892Z,1.17
2023-07-12T09:19:56.829Z,1.00
2023-07-12T09:22:24.741Z,0.93
2023-07-12T09:24:54.043Z,1.20
2023-07-12T09:27:23.341Z,0.97
2023-07-12T09:29:59.587Z,1.80
2023-07-12T09:32:33.087Z,1.27
2023-07-12T09:35:00.835Z,0.90
2023-07-12T09:37:28.018Z,1.17
2023-07-12T09:39:56.661Z,1.20
2023-07-12T09:42:25.423Z,1.10
2023-07-12T09:44:52.892Z,1.20
2023-07-12T09:47:40.660Z,1.10
2023-07-12T09:50:15.518Z,1.10
2023-07-12T09:52:58.296Z,1.40
2023-07-12T09:55:28.018Z,1.40
2023-07-12T09:58:03.170Z,1.23
2023-07-12T10:00:38.884Z,1.57
2023-07-12T10:03:16.132Z,1.70
2023-07-12T10:05:53.135Z,1.50
2023-07-12T10:08:20.797Z,1.97
2023-07-12T10:10:54.296Z,1.47
2023-07-12T10:13:32.280Z,1.33
2023-07-12T10:16:01.134Z,1.90
2023-07-12T10:18:33.332Z,2.10
2023-07-12T10:21:01.384Z,1.60
2023-07-12T10:23:33.029Z,1.50
2023-07-12T10:26:03.721Z,1.70
2023-07-12T10:28:41.943Z,1.27
2023-07-12T10:31:15.548Z,1.70
2023-07-12T10:33:46.648Z,1.40
2023-07-12T10:36:20.377Z,1.30
2023-07-12T10:38:48.122Z,1.60
2023-07-12T10:41:20.662Z,1.77
2023-07-12T10:43:51.095Z,1.20
2023-07-12T10:46:25.990Z,1.17
2023-07-12T10:48:56.290Z,1.00
2023-07-12T10:51:34.798Z,1.00
2023-07-12T10:54:01.654Z,1.20
2023-07-12T10:56:34.640Z,1.47
2023-07-12T10:59:03.731Z,2.53
2023-07-12T11:01:49.548Z,1.20
2023-07-12T11:04:24.648Z,1.10
2023-07-12T11:06:58.031Z,1.17
2023-07-12T11:09:25.991Z,0.97
2023-07-12T11:12:00.208Z,1.20
2023-07-12T11:14:50.854Z,1.30
2023-07-12T11:17:22.181Z,1.00
2023-07-12T11:20:09.405Z,0.80
2023-07-12T11:23:00.551Z,0.80
2023-07-12T11:25:53.826Z,1.37
2023-07-12T11:28:38.182Z,0.93
2023-07-12T11:31:19.087Z,0.87
2023-07-12T11:33:49.738Z,1.10
2023-07-12T11:36:22.828Z,1.00
2023-07-12T11:38:50.533Z,1.00
2023-07-12T11:41:19.722Z,1.63
2023-07-12T11:43:47.076Z,1.00
2023-07-12T11:46:17.472Z,1.03
2023-07-12T11:48:49.981Z,0.87
2023-07-12T11:51:22.004Z,1.00
2023-07-12T11:53:53.353Z,1.13
2023-07-12T11:56:20.334Z,0.80
2023-07-12T11:58:47.276Z,0.87
2023-07-12T12:01:16.862Z,1.10
2023-07-12T12:03:43.857Z,0.80
2023-07-12T12:06:13.341Z,0.90
2023-07-12T12:08:47.691Z,1.00
2023-07-12T12:11:15.252Z,1.10
2023-07-12T12:13:49.244Z,1.07
2023-07-12T12:16:22.351Z,1.63
2023-07-12T12:19:00.277Z,0.83
2023-07-12T12:21:28.602Z,0.90
2023-07-12T12:24:06.069Z,0.90
2023-07-12T12:26:37.868Z,0.83
2023-07-12T12:29:07.363Z,1.03
2023-07-12T12:31:37.865Z,1.10
2023-07-12T12:34:06.814Z,1.00
2023-07-12T12:36:34.812Z,0.83
2023-07-12T12:39:06.535Z,0.80
2023-07-12T12:41:38.722Z,0.97
2023-07-12T12:44:15.430Z,1.30
2023-07-12T12:54:25.646Z,1.10
2023-07-12T13:07:01.921Z,1.07
2023-07-12T13:19:31.527Z,0.80
2023-07-12T13:21:58.806Z,0.97
2023-07-12T13:24:25.810Z,1.00
2023-07-12T13:26:54.075Z,1.20
2023-07-12T13:29:21.050Z,0.90
2023-07-12T13:31:48.062Z,1.13
2023-07-12T13:34:17.394Z,0.90
2023-07-12T13:36:47.417Z,0.90
2023-07-12T13:46:52.207Z,1.00
2023-07-12T13:49:19.913Z,1.03
2023-07-12T13:51:48.144Z,1.10
2023-07-12T13:54:16.006Z,0.70
2023-07-12T14:01:46.852Z,1.00
2023-07-12T14:09:20.774Z,1.07
2023-07-12T14:11:48.903Z,1.10
2023-07-12T14:14:16.488Z,1.20
2023-07-12T14:16:44.873Z,0.70
2023-07-12T14:19:11.876Z,1.00
2023-07-12T14:21:39.416Z,0.87
2023-07-12T14:24:06.871Z,1.33
2023-07-12T14:26:33.870Z,0.93
2023-07-12T14:29:03.307Z,0.90
2023-07-12T14:31:33.802Z,0.83
2023-07-12T14:34:02.064Z,0.90
2023-07-12T14:36:29.615Z,0.90
2023-07-12T14:38:56.736Z,1.37
2023-07-12T14:41:26.695Z,1.10
2023-07-12T14:43:54.691Z,1.17
2023-07-12T14:46:21.645Z,1.00
2023-07-12T14:48:49.032Z,0.83
2023-07-12T14:51:20.335Z,0.90
2023-07-12T14:53:48.597Z,0.90
2023-07-12T14:56:15.729Z,1.40
2023-07-12T14:58:42.615Z,0.90
2023-07-12T15:01:20.601Z,0.80
2023-07-12T15:03:47.541Z,0.90
2023-07-12T15:06:14.834Z,1.60
2023-07-12T15:08:45.985Z,1.00
2023-07-12T15:11:18.239Z,1.00
2023-07-12T15:13:46.322Z,1.00
2023-07-12T15:16:16.040Z,0.80
2023-07-12T15:18:43.326Z,1.00
2023-07-12T15:21:22.455Z,1.00
2023-07-12T15:23:51.417Z,0.90
2023-07-12T15:26:19.049Z,0.83
2023-07-12T15:28:47.149Z,1.20
2023-07-12T15:31:19.553Z,0.80
2023-07-12T15:33:47.186Z,0.90
2023-07-12T15:36:14.429Z,0.83
2023-07-12T15:38:42.487Z,0.70
2023-07-12T15:41:13.986Z,0.60
2023-07-12T15:43:42.892Z,1.13
2023-07-12T15:46:14.190Z,1.20
2023-07-12T15:48:41.739Z,1.10
2023-07-12T15:51:17.169Z,1.30
2023-07-12T15:53:51.068Z,1.00
2023-07-12T15:56:22.783Z,0.93
2023-07-12T15:58:50.013Z,1.03
2023-07-12T16:01:19.834Z,1.13
2023-07-12T16:03:47.493Z,1.20
2023-07-12T16:06:15.350Z,1.00
2023-07-12T16:08:43.080Z,1.10
2023-07-12T16:11:21.444Z,1.20
2023-07-12T16:16:22.786Z,0.60
2023-07-12T16:18:50.361Z,1.00
2023-07-12T16:21:19.429Z,0.90
2023-07-12T16:23:48.674Z,0.60
2023-07-12T16:26:18.218Z,1.30
2023-07-12T16:28:47.048Z,0.90
2023-07-12T16:31:28.744Z,0.70
2023-07-12T16:33:57.168Z,0.60
2023-07-12T16:36:25.534Z,0.70
2023-07-12T16:38:53.332Z,0.70
2023-07-12T16:41:24.277Z,0.70
2023-07-12T16:43:53.289Z,0.60
2023-07-12T16:46:20.557Z,0.70
2023-07-12T16:48:48.118Z,0.60
2023-07-12T16:51:16.594Z,0.40
2023-07-12T16:53:43.696Z,0.60
2023-07-12T16:56:15.608Z,1.00
2023-07-12T16:58:42.562Z,0.80
2023-07-12T17:01:15.315Z,0.60
2023-07-12T17:03:46.781Z,0.60
2023-07-12T17:06:14.490Z,0.73
2023-07-12T17:08:42.222Z,0.60
2023-07-12T17:11:12.108Z,0.60
2023-07-12T17:13:39.203Z,0.80
2023-07-12T17:16:07.337Z,0.50
2023-07-12T17:18:35.785Z,0.70
2023-07-12T17:21:02.724Z,0.83
2023-07-12T17:23:31.360Z,0.80
2023-07-12T17:26:01.408Z,0.70
2023-07-12T17:28:30.779Z,0.70
2023-07-12T17:31:01.775Z,0.73
2023-07-12T17:33:29.143Z,1.20
2023-07-12T17:35:57.456Z,0.83
2023-07-12T17:38:24.345Z,0.97
2023-07-12T17:40:53.432Z,0.73
2023-07-12T17:43:23.107Z,0.90
2023-07-12T17:45:50.161Z,0.67
2023-07-12T17:48:17.453Z,0.70
2023-07-12T17:50:47.385Z,0.67
2023-07-12T17:53:19.076Z,0.70
2023-07-12T17:55:49.426Z,0.80
2023-07-12T17:58:17.069Z,0.67
2023-07-12T18:00:46.379Z,0.60
2023-07-12T18:03:14.714Z,0.70
2023-07-12T18:05:42.633Z,0.80
2023-07-12T18:08:12.544Z,0.80
2023-07-12T18:10:43.566Z,0.93
2023-07-12T18:13:17.668Z,0.83
2023-07-12T18:15:45.486Z,0.73
2023-07-12T18:18:12.924Z,0.80
2023-07-12T18:20:40.094Z,0.70
2023-07-12T18:23:14.769Z,0.80
2023-07-12T18:25:43.728Z,0.77
2023-07-12T18:28:11.545Z,0.60
2023-07-12T18:30:39.614Z,0.90
2023-07-12T18:33:12.888Z,0.90
2023-07-12T18:35:39.801Z,0.80
2023-07-12T18:38:06.842Z,0.70
2023-07-12T18:40:34.075Z,0.57
2023-07-12T18:43:02.491Z,0.83
2023-07-12T18:45:31.789Z,0.50
2023-07-12T18:47:58.761Z,0.60
2023-07-12T18:50:27.355Z,0.80
2023-07-12T18:52:56.027Z,0.77
2023-07-12T18:55:23.139Z,0.33
2023-07-12T18:57:53.242Z,0.60
2023-07-12T19:00:22.048Z,0.60
2023-07-12T19:02:49.433Z,0.80
2023-07-12T19:05:23.762Z,0.70
2023-07-12T19:07:51.261Z,1.10
2023-07-12T19:10:20.177Z,0.87
2023-07-12T19:12:47.824Z,0.50
2023-07-12T19:15:19.295Z,0.70
2023-07-12T19:17:48.682Z,0.67
2023-07-12T19:20:16.558Z,0.87
2023-07-12T19:22:44.296Z,0.83
2023-07-12T19:25:20.375Z,0.80
2023-07-12T19:27:47.548Z,0.87
2023-07-12T19:30:15.835Z,0.80
2023-07-12T19:32:43.409Z,0.50
2023-07-12T19:35:19.507Z,0.73
2023-07-12T19:37:47.440Z,0.97
2023-07-12T19:40:15.263Z,0.60
2023-07-12T19:42:42.437Z,0.63
2023-07-12T19:45:17.026Z,0.67
2023-07-12T19:47:44.405Z,0.60
2023-07-12T19:50:12.546Z,0.40
2023-07-12T19:52:41.292Z,1.23
2023-07-12T19:55:19.408Z,0.73
2023-07-12T19:57:46.283Z,0.53
2023-07-12T20:00:15.830Z,0.70
2023-07-12T20:02:43.544Z,0.60
2023-07-12T20:05:11.357Z,0.80
2023-07-12T20:07:41.612Z,0.90
2023-07-12T20:10:09.524Z,1.20
2023-07-12T20:12:38.339Z,1.07
2023-07-12T20:15:06.530Z,0.87
2023-07-12T20:17:33.776Z,0.60
2023-07-12T20:20:00.807Z,0.70
2023-07-12T20:22:28.495Z,0.70
2023-07-12T20:24:56.793Z,0.90
2023-07-12T20:27:24.212Z,1.20
2023-07-12T20:29:51.200Z,0.90
2023-07-12T20:32:20.153Z,1.00
2023-07-12T20:34:47.206Z,0.43
2023-07-12T20:37:14.026Z,0.73
2023-07-12T20:39:40.934Z,0.73
2023-07-12T20:42:09.625Z,1.53
2023-07-12T20:44:37.911Z,1.00
2023-07-12T20:47:05.382Z,0.90
2023-07-12T20:49:32.363Z,1.10
2023-07-12T20:52:01.542Z,1.07
2023-07-12T20:54:28.586Z,0.70
2023-07-12T20:56:55.432Z,0.87
2023-07-12T20:59:23.696Z,0.80
2023-07-12T21:01:50.581Z,1.20
2023-07-12T21:04:17.613Z,1.40
2023-07-12T21:06:45.056Z,1.17
2023-07-12T21:09:14.460Z,12.53
2023-07-12T21:11:41.392Z,5.57
2023-07-12T21:14:08.227Z,2.83
2023-07-12T21:16:37.513Z,3.67
2023-07-12T21:19:06.925Z,8.07
2023-07-12T21:21:34.169Z,3.97
2023-07-12T21:24:01.022Z,4.93
2023-07-12T21:26:27.856Z,3.07
2023-07-12T21:28:54.678Z,4.03
2023-07-12T21:31:21.661Z,3.90
2023-07-12T21:33:50.027Z,4.03
2023-07-12T21:36:17.188Z,3.80
2023-07-12T21:38:44.108Z,3.20
2023-07-12T21:41:13.673Z,3.17
2023-07-12T21:43:40.791Z,3.17
2023-07-12T21:46:08.469Z,4.30
2023-07-12T21:48:36.429Z,2.47
2023-07-12T21:51:04.911Z,2.20
2023-07-12T21:53:32.206Z,1.70
2023-07-12T21:55:58.999Z,2.10
2023-07-12T21:58:25.883Z,1.40
2023-07-12T22:00:52.700Z,1.20
2023-07-12T22:03:19.651Z,1.43
2023-07-12T22:05:47.391Z,1.40
2023-07-12T22:08:16.533Z,1.20
2023-07-12T22:10:44.606Z,1.20
2023-07-12T22:13:11.865Z,1.47
2023-07-12T22:15:39.864Z,1.90
2023-07-12T22:18:06.959Z,1.17
2023-07-12T22:20:34.089Z,1.13
2023-07-12T22:23:01.317Z,2.27
2023-07-12T22:25:29.748Z,1.20
2023-07-12T22:27:56.627Z,0.87
2023-07-12T22:30:27.974Z,0.80
2023-07-12T22:32:55.061Z,1.17
2023-07-12T22:35:22.813Z,1.17
2023-07-12T22:37:49.669Z,1.03
2023-07-12T22:40:16.630Z,1.10
2023-07-12T22:42:46.201Z,0.93
2023-07-12T22:45:13.316Z,1.03
2023-07-12T22:47:41.156Z,1.23
2023-07-12T22:50:09.098Z,1.00
2023-07-12T22:52:36.099Z,0.90
2023-07-12T22:55:03.956Z,1.00
2023-07-12T22:57:31.329Z,0.70
2023-07-12T22:59:59.775Z,1.27
2023-07-12T23:02:26.870Z,0.93
2023-07-12T23:04:53.823Z,1.07
2023-07-12T23:07:21.774Z,0.60
2023-07-12T23:09:48.650Z,0.90
2023-07-12T23:12:15.825Z,1.00
2023-07-12T23:14:44.292Z,0.90
2023-07-12T23:17:13.279Z,1.03
2023-07-12T23:19:41.209Z,0.90
2023-07-12T23:22:14.677Z,0.70
2023-07-12T23:24:41.628Z,0.80
2023-07-12T23:27:09.134Z,0.80
2023-07-12T23:29:37.076Z,1.10
2023-07-12T23:32:05.646Z,0.97
2023-07-12T23:34:33.866Z,1.00
2023-07-12T23:37:01.034Z,0.70
2023-07-12T23:39:28.307Z,1.13
2023-07-12T23:41:55.599Z,1.13
2023-07-12T23:44:24.739Z,0.97
2023-07-12T23:46:51.624Z,0.60
2023-07-12T23:49:18.883Z,0.60
2023-07-12T23:51:47.045Z,0.67
2023-07-12T23:54:13.922Z,0.77
2023-07-12T23:56:40.817Z,1.00
2023-07-12T23:59:13.034Z,1.00
